CCA9691 ZYCC-ZBSJ
Flight info
| Callsign | CCA9691 |
|---|---|
| Flight time | N/A |
| Altitude | 38100 |
| Route | BUTET4D BUTET G341 TGO G212 VYK B215 IDGIS IDGIS9ZA |
| Aircraft | A20N/M-SDE2E3FGHIRWXY/LB1 |
Departure
| Time | 2026-05-04 09:04 |
|---|---|
| Airport | Changchun Longjia International Airport (ZYCC) |
Arrival
| Time | N/A |
|---|---|
| Airport | Shijiazhuang Zhengding International Airport (ZBSJ) |
| Time | Latitude | Longitude | Altitude | Speed | Heading |
|---|---|---|---|---|---|
| 2026-05-04 08:42 | 43.99002 | 125.68359 | 713 ft | 0 kts | 139° |
| 2026-05-04 08:57 | 43.99076 | 125.68275 | 717 ft | 4 kts | 190° |
| 2026-05-04 09:01 | 43.99063 | 125.68000 | 715 ft | 15 kts | 320° |
| 2026-05-04 09:01 | 43.99062 | 125.67922 | 717 ft | 7 kts | 216° |
| 2026-05-04 09:01 | 43.98966 | 125.67795 | 717 ft | 24 kts | 228° |
| 2026-05-04 09:01 | 43.98849 | 125.67607 | 716 ft | 27 kts | 229° |
| 2026-05-04 09:02 | 43.98718 | 125.67397 | 716 ft | 30 kts | 229° |
| 2026-05-04 09:02 | 43.98583 | 125.67178 | 715 ft | 16 kts | 237° |
| 2026-05-04 09:02 | 43.98592 | 125.67147 | 716 ft | 8 kts | 313° |
| 2026-05-04 09:02 | 43.98655 | 125.67079 | 716 ft | 14 kts | 321° |
| 2026-05-04 09:03 | 43.98721 | 125.67061 | 717 ft | 7 kts | 34° |
| 2026-05-04 09:03 | 43.98764 | 125.67116 | 718 ft | 0 kts | 47° |
| 2026-05-04 09:03 | 43.98773 | 125.67130 | 719 ft | 18 kts | 47° |
| 2026-05-04 09:03 | 43.99062 | 125.67592 | 717 ft | 106 kts | 50° |
| 2026-05-04 09:04 | 43.99696 | 125.68589 | 792 ft | 159 kts | 46° |
| 2026-05-04 09:04 | 44.00421 | 125.69735 | 1564 ft | 160 kts | 47° |
| 2026-05-04 09:04 | 44.01190 | 125.70961 | 2201 ft | 175 kts | 47° |
| 2026-05-04 09:04 | 44.02013 | 125.72282 | 2956 ft | 189 kts | 47° |
| 2026-05-04 09:05 | 44.02911 | 125.73730 | 3694 ft | 207 kts | 48° |
| 2026-05-04 09:05 | 44.03897 | 125.75329 | 4437 ft | 229 kts | 48° |
| 2026-05-04 09:05 | 44.04982 | 125.77092 | 5158 ft | 250 kts | 47° |
| 2026-05-04 09:05 | 44.06176 | 125.79032 | 5753 ft | 279 kts | 47° |
| 2026-05-04 09:06 | 44.07467 | 125.81129 | 5960 ft | 287 kts | 47° |
| 2026-05-04 09:07 | 44.17926 | 125.85019 | 10121 ft | 255 kts | 294° |
| 2026-05-04 09:08 | 44.18321 | 125.82534 | 10966 ft | 278 kts | 272° |
| 2026-05-04 09:08 | 44.17879 | 125.79762 | 11586 ft | 311 kts | 252° |
| 2026-05-04 09:08 | 44.16959 | 125.76914 | 12332 ft | 330 kts | 249° |
| 2026-05-04 09:08 | 44.15952 | 125.74009 | 13409 ft | 336 kts | 249° |
| 2026-05-04 09:09 | 44.14937 | 125.71045 | 14400 ft | 341 kts | 250° |
| 2026-05-04 09:09 | 44.13932 | 125.68028 | 15411 ft | 346 kts | 251° |
| 2026-05-04 09:09 | 44.12928 | 125.64953 | 16350 ft | 353 kts | 251° |
| 2026-05-04 09:09 | 44.11896 | 125.61747 | 16763 ft | 375 kts | 251° |
| 2026-05-04 09:10 | 44.10820 | 125.58389 | 17002 ft | 397 kts | 251° |
| 2026-05-04 09:10 | 44.09657 | 125.54780 | 17239 ft | 418 kts | 250° |
| 2026-05-04 09:10 | 44.08437 | 125.51015 | 17552 ft | 434 kts | 250° |
| 2026-05-04 09:10 | 44.07183 | 125.47167 | 18208 ft | 439 kts | 250° |
| 2026-05-04 09:11 | 44.05915 | 125.43284 | 18817 ft | 444 kts | 250° |
| 2026-05-04 09:11 | 44.04631 | 125.39353 | 19412 ft | 449 kts | 250° |
| 2026-05-04 09:11 | 44.03335 | 125.35383 | 19989 ft | 454 kts | 250° |
| 2026-05-04 09:11 | 44.02021 | 125.31359 | 20564 ft | 459 kts | 250° |
| 2026-05-04 09:12 | 44.00694 | 125.27303 | 21128 ft | 464 kts | 250° |
| 2026-05-04 09:12 | 43.99350 | 125.23204 | 21665 ft | 469 kts | 250° |
| 2026-05-04 09:14 | 43.89676 | 124.93909 | 25705 ft | 475 kts | 250° |
| 2026-05-04 09:14 | 43.88298 | 124.89762 | 26341 ft | 473 kts | 250° |
| 2026-05-04 09:14 | 43.86923 | 124.85630 | 26963 ft | 471 kts | 251° |
| 2026-05-04 09:14 | 43.85553 | 124.81519 | 27594 ft | 469 kts | 251° |
| 2026-05-04 09:15 | 43.84647 | 124.78805 | 27998 ft | 468 kts | 251° |
| 2026-05-04 09:15 | 43.82821 | 124.73342 | 28810 ft | 466 kts | 251° |
| 2026-05-04 09:15 | 43.81461 | 124.69278 | 29420 ft | 465 kts | 251° |
| 2026-05-04 09:15 | 43.80562 | 124.66595 | 29826 ft | 464 kts | 251° |
| 2026-05-04 09:17 | 43.69870 | 124.34915 | 34357 ft | 447 kts | 252° |
| 2026-05-04 09:18 | 43.68543 | 124.31034 | 34780 ft | 448 kts | 250° |
| 2026-05-04 09:18 | 43.67039 | 124.27308 | 35190 ft | 452 kts | 245° |
| 2026-05-04 09:18 | 43.65335 | 124.23591 | 35619 ft | 452 kts | 244° |
| 2026-05-04 09:18 | 43.63682 | 124.19970 | 36033 ft | 451 kts | 244° |
| 2026-05-04 09:19 | 43.62020 | 124.16310 | 36446 ft | 450 kts | 244° |
| 2026-05-04 09:19 | 43.60365 | 124.12654 | 36860 ft | 448 kts | 244° |
| 2026-05-04 09:19 | 43.58718 | 124.09011 | 37277 ft | 448 kts | 244° |
| 2026-05-04 09:19 | 43.57071 | 124.05372 | 37624 ft | 447 kts | 244° |
| 2026-05-04 09:20 | 43.55427 | 124.01746 | 37750 ft | 445 kts | 243° |
| 2026-05-04 09:20 | 43.53786 | 123.98135 | 37756 ft | 444 kts | 243° |
| 2026-05-04 09:20 | 43.50506 | 123.90928 | 37747 ft | 444 kts | 243° |
| 2026-05-04 09:21 | 43.47223 | 123.83733 | 37745 ft | 444 kts | 243° |
| 2026-05-04 09:21 | 43.43932 | 123.76541 | 37744 ft | 444 kts | 243° |
| 2026-05-04 09:22 | 43.40632 | 123.69354 | 37741 ft | 444 kts | 243° |
| 2026-05-04 09:22 | 43.37327 | 123.62179 | 37741 ft | 444 kts | 243° |
| 2026-05-04 09:23 | 43.34017 | 123.55011 | 37738 ft | 444 kts | 243° |
| 2026-05-04 09:23 | 43.30700 | 123.47844 | 37740 ft | 444 kts | 243° |
| 2026-05-04 09:25 | 43.17408 | 123.19306 | 37745 ft | 445 kts | 243° |
| 2026-05-04 09:26 | 43.14066 | 123.12174 | 37747 ft | 445 kts | 243° |
| 2026-05-04 09:26 | 43.10720 | 123.05050 | 37739 ft | 445 kts | 243° |
| 2026-05-04 09:27 | 43.07375 | 122.97946 | 37743 ft | 444 kts | 242° |
| 2026-05-04 09:27 | 43.04021 | 122.90840 | 37741 ft | 445 kts | 242° |
| 2026-05-04 09:28 | 43.00664 | 122.83745 | 37749 ft | 444 kts | 242° |
| 2026-05-04 09:28 | 42.97302 | 122.76655 | 37748 ft | 444 kts | 242° |
| 2026-05-04 09:29 | 42.93936 | 122.69578 | 37749 ft | 444 kts | 242° |
| 2026-05-04 09:29 | 42.90564 | 122.62512 | 37749 ft | 444 kts | 242° |
| 2026-05-04 09:30 | 42.87190 | 122.55453 | 37749 ft | 444 kts | 242° |
| 2026-05-04 09:30 | 42.83812 | 122.48398 | 37747 ft | 444 kts | 242° |
| 2026-05-04 09:31 | 42.80428 | 122.41345 | 37753 ft | 445 kts | 242° |
| 2026-05-04 09:31 | 42.77038 | 122.34298 | 37753 ft | 445 kts | 242° |
| 2026-05-04 09:32 | 42.73645 | 122.27261 | 37755 ft | 445 kts | 242° |
| 2026-05-04 09:34 | 42.60030 | 121.99190 | 37761 ft | 446 kts | 242° |
| 2026-05-04 09:34 | 42.56606 | 121.92173 | 37764 ft | 446 kts | 242° |
| 2026-05-04 09:35 | 42.53174 | 121.85155 | 37764 ft | 447 kts | 242° |
| 2026-05-04 09:35 | 42.49737 | 121.78144 | 37771 ft | 447 kts | 242° |
| 2026-05-04 09:37 | 42.35930 | 121.50140 | 37782 ft | 447 kts | 241° |
| 2026-05-04 09:38 | 42.32464 | 121.43152 | 37788 ft | 448 kts | 241° |
| 2026-05-04 09:38 | 42.28995 | 121.36172 | 37787 ft | 448 kts | 241° |
| 2026-05-04 09:39 | 42.25518 | 121.29195 | 37793 ft | 447 kts | 241° |
| 2026-05-04 09:39 | 42.22038 | 121.22227 | 37794 ft | 447 kts | 241° |
| 2026-05-04 09:40 | 42.18580 | 121.15319 | 37791 ft | 447 kts | 241° |
| 2026-05-04 09:40 | 42.15096 | 121.08374 | 37795 ft | 447 kts | 241° |
| 2026-05-04 09:42 | 42.01103 | 120.80647 | 37808 ft | 448 kts | 240° |
| 2026-05-04 09:43 | 41.97588 | 120.73720 | 37811 ft | 448 kts | 240° |
| 2026-05-04 09:43 | 41.94068 | 120.66800 | 37815 ft | 449 kts | 240° |
| 2026-05-04 09:44 | 41.90537 | 120.59875 | 37817 ft | 450 kts | 240° |
| 2026-05-04 09:46 | 41.76356 | 120.32219 | 37841 ft | 452 kts | 240° |
| 2026-05-04 09:46 | 41.72783 | 120.25291 | 37851 ft | 452 kts | 240° |
| 2026-05-04 09:47 | 41.69207 | 120.18372 | 37843 ft | 452 kts | 240° |
| 2026-05-04 09:49 | 41.54856 | 119.90767 | 37866 ft | 452 kts | 240° |
| 2026-05-04 09:51 | 41.42237 | 119.66696 | 37876 ft | 452 kts | 239° |
| 2026-05-04 09:51 | 41.38624 | 119.59838 | 37877 ft | 452 kts | 239° |
| 2026-05-04 09:52 | 41.35004 | 119.52983 | 37880 ft | 452 kts | 239° |
| 2026-05-04 09:52 | 41.31382 | 119.46139 | 37889 ft | 453 kts | 239° |
| 2026-05-04 09:53 | 41.27752 | 119.39297 | 37893 ft | 453 kts | 239° |
| 2026-05-04 09:53 | 41.24118 | 119.32460 | 37897 ft | 453 kts | 239° |
| 2026-05-04 09:54 | 41.20483 | 119.25637 | 37896 ft | 453 kts | 239° |
| 2026-05-04 09:54 | 41.16837 | 119.18811 | 37900 ft | 453 kts | 239° |
| 2026-05-04 09:55 | 41.13215 | 119.12045 | 37910 ft | 453 kts | 239° |
| 2026-05-04 09:55 | 41.09561 | 119.05230 | 37909 ft | 453 kts | 239° |
| 2026-05-04 09:56 | 41.05902 | 118.98422 | 37926 ft | 453 kts | 239° |
| 2026-05-04 09:56 | 41.02241 | 118.91626 | 37919 ft | 453 kts | 239° |
| 2026-05-04 09:57 | 40.98572 | 118.84832 | 37924 ft | 454 kts | 239° |
| 2026-05-04 09:57 | 40.94899 | 118.78046 | 37937 ft | 453 kts | 239° |
| 2026-05-04 09:58 | 40.91227 | 118.71274 | 37936 ft | 454 kts | 239° |
| 2026-05-04 09:58 | 40.87544 | 118.64497 | 37941 ft | 454 kts | 239° |
| 2026-05-04 10:00 | 40.74843 | 118.41243 | 37949 ft | 443 kts | 239° |
| 2026-05-04 10:00 | 40.73039 | 118.37954 | 37947 ft | 443 kts | 239° |
| 2026-05-04 10:04 | 40.47658 | 117.92048 | 37962 ft | 444 kts | 238° |
| 2026-05-04 10:04 | 40.44013 | 117.85510 | 37960 ft | 444 kts | 238° |
| 2026-05-04 10:05 | 40.40370 | 117.78992 | 37963 ft | 442 kts | 238° |
| 2026-05-04 10:05 | 40.36728 | 117.72488 | 37978 ft | 442 kts | 238° |
| 2026-05-04 10:06 | 40.33099 | 117.66014 | 37971 ft | 444 kts | 238° |
| 2026-05-04 10:06 | 40.30033 | 117.60561 | 37970 ft | 443 kts | 238° |
| 2026-05-04 10:08 | 40.17257 | 117.37931 | 37955 ft | 441 kts | 238° |
| 2026-05-04 10:08 | 40.13603 | 117.31487 | 37944 ft | 441 kts | 238° |
| 2026-05-04 10:09 | 40.09948 | 117.25054 | 37947 ft | 441 kts | 238° |
| 2026-05-04 10:09 | 40.06284 | 117.18621 | 37945 ft | 442 kts | 238° |
| 2026-05-04 10:10 | 40.02631 | 117.12220 | 37946 ft | 443 kts | 238° |
| 2026-05-04 10:10 | 39.98924 | 117.05739 | 37944 ft | 443 kts | 238° |
| 2026-05-04 10:11 | 39.95233 | 116.99297 | 37948 ft | 444 kts | 238° |
| 2026-05-04 10:11 | 39.91560 | 116.92901 | 37953 ft | 444 kts | 238° |
| 2026-05-04 10:12 | 39.87854 | 116.86460 | 37953 ft | 444 kts | 238° |
| 2026-05-04 10:12 | 39.84141 | 116.80020 | 37953 ft | 445 kts | 238° |
| 2026-05-04 10:13 | 39.80423 | 116.73584 | 37957 ft | 445 kts | 238° |
| 2026-05-04 10:13 | 39.76698 | 116.67149 | 37956 ft | 445 kts | 238° |
| 2026-05-04 10:14 | 39.72967 | 116.60718 | 37962 ft | 446 kts | 238° |
| 2026-05-04 10:16 | 39.58007 | 116.35061 | 37956 ft | 446 kts | 238° |
| 2026-05-04 10:16 | 39.54260 | 116.28666 | 37956 ft | 446 kts | 238° |
| 2026-05-04 10:17 | 39.53464 | 116.27309 | 37954 ft | 446 kts | 238° |